Time;durP1;ratioP1;P1;durP2;ratioP2;P2;SDS_P1;SDS_P2;PMS_P1;PMS_P2;Temp;Humidity;BMP_temperature;BMP_pressure;BME280_temperature;BME280_humidity;BME280_pressure;Samples;Min_cycle;Max_cycle;Signal;HPM_P1;HPM_P2
2023/12/14 00:01:22;;;;;;;25.43;15.37;;;;;;;;;;4867933;29;20535;-63
2023/12/14 00:03:48;;;;;;;30.00;15.60;;;;;;;;;;4867630;29;20148;-63
2023/12/14 00:06:15;;;;;;;27.97;16.17;;;;;;;;;;4868065;29;20420;-63
2023/12/14 00:08:41;;;;;;;28.33;15.00;;;;;;;;;;4870525;29;20045;-63
2023/12/14 00:11:08;;;;;;;27.87;15.50;;;;;;;;;;4867140;29;20049;-63
2023/12/14 00:13:34;;;;;;;25.47;14.40;;;;;;;;;;4870177;29;20047;-63
2023/12/14 00:16:00;;;;;;;28.53;14.27;;;;;;;;;;4865076;29;20052;-63
2023/12/14 00:18:26;;;;;;;24.00;14.50;;;;;;;;;;4871469;29;20572;-63
2023/12/14 00:20:53;;;;;;;23.60;14.50;;;;;;;;;;4867902;29;20405;-63
2023/12/14 00:23:19;;;;;;;23.00;13.77;;;;;;;;;;4865760;29;20061;-63
2023/12/14 00:25:45;;;;;;;26.70;15.20;;;;;;;;;;4866830;29;20053;-63
2023/12/14 00:28:12;;;;;;;20.87;13.13;;;;;;;;;;4863020;29;20128;-63
2023/12/14 00:30:38;;;;;;;25.07;13.70;;;;;;;;;;4864568;29;20167;-63
2023/12/14 00:33:04;;;;;;;25.97;14.70;;;;;;;;;;4864802;29;20129;-63
2023/12/14 00:35:30;;;;;;;26.27;14.20;;;;;;;;;;4867887;29;20101;-63
2023/12/14 00:37:56;;;;;;;24.00;13.33;;;;;;;;;;4868663;29;20104;-63
2023/12/14 00:40:22;;;;;;;23.70;14.27;;;;;;;;;;4869410;29;20049;-63
2023/12/14 00:42:48;;;;;;;22.30;12.80;;;;;;;;;;4869467;29;20093;-63
2023/12/14 00:45:14;;;;;;;24.23;14.10;;;;;;;;;;4867413;29;20121;-63
2023/12/14 00:47:40;;;;;;;24.73;14.67;;;;;;;;;;4868230;29;20517;-63
2023/12/14 00:50:06;;;;;;;26.00;13.90;;;;;;;;;;4864908;29;20045;-63
2023/12/14 00:52:32;;;;;;;27.33;14.27;;;;;;;;;;4869104;29;20045;-63
2023/12/14 00:54:58;;;;;;;22.53;13.50;;;;;;;;;;4862826;29;20488;-63
2023/12/14 00:57:24;;;;;;;23.13;13.57;;;;;;;;;;4867900;29;20056;-63
2023/12/14 00:59:50;;;;;;;23.97;14.30;;;;;;;;;;4866332;29;20074;-63
2023/12/14 01:02:16;;;;;;;28.20;13.63;;;;;;;;;;4863633;29;20037;-63
2023/12/14 01:04:42;;;;;;;22.53;12.73;;;;;;;;;;4866638;29;20100;-63
2023/12/14 01:07:08;;;;;;;23.47;13.30;;;;;;;;;;4866157;29;20052;-63
2023/12/14 01:09:34;;;;;;;20.33;12.73;;;;;;;;;;4867152;29;20539;-63
2023/12/14 01:12:00;;;;;;;21.10;12.43;;;;;;;;;;4869359;29;20420;-63
2023/12/14 01:14:26;;;;;;;23.93;12.90;;;;;;;;;;4863533;29;20042;-63
2023/12/14 01:16:52;;;;;;;21.13;11.97;;;;;;;;;;4864489;29;20045;-63
2023/12/14 01:19:18;;;;;;;23.30;13.20;;;;;;;;;;4870112;29;20060;-63
2023/12/14 01:21:45;;;;;;;19.50;11.77;;;;;;;;;;4869025;29;20517;-63
2023/12/14 01:24:11;;;;;;;18.70;11.43;;;;;;;;;;4866428;29;20066;-63
2023/12/14 01:26:37;;;;;;;22.63;12.23;;;;;;;;;;4866844;29;20045;-63
2023/12/14 01:29:03;;;;;;;24.93;12.43;;;;;;;;;;4866138;29;20044;-63
2023/12/14 01:31:29;;;;;;;22.60;12.40;;;;;;;;;;4862903;29;20052;-63
2023/12/14 01:33:55;;;;;;;23.97;12.70;;;;;;;;;;4862593;29;20054;-63
2023/12/14 01:36:24;;;;;;;21.27;12.20;;;;;;;;;;4864321;29;20050;-63
2023/12/14 01:38:50;;;;;;;25.47;13.90;;;;;;;;;;4865404;29;20133;-63
2023/12/14 01:41:16;;;;;;;19.90;11.87;;;;;;;;;;4866774;29;20124;-63
2023/12/14 01:43:42;;;;;;;21.93;12.27;;;;;;;;;;4868131;29;20132;-63
2023/12/14 01:46:08;;;;;;;24.40;12.57;;;;;;;;;;4863655;29;20046;-63
2023/12/14 01:48:34;;;;;;;24.50;12.40;;;;;;;;;;4861761;29;20048;-63
2023/12/14 01:51:00;;;;;;;20.50;12.07;;;;;;;;;;4862860;29;20045;-63
2023/12/14 01:53:27;;;;;;;19.30;12.03;;;;;;;;;;4866414;29;20076;-63
2023/12/14 01:55:53;;;;;;;23.40;11.97;;;;;;;;;;4870367;29;20423;-63
2023/12/14 01:58:19;;;;;;;22.33;12.07;;;;;;;;;;4868047;29;20113;-63
2023/12/14 02:01:00;;;;;;;23.67;12.07;;;;;;;;;;4868048;29;20077;-63
2023/12/14 02:03:26;;;;;;;24.97;13.23;;;;;;;;;;4865760;29;20072;-63
2023/12/14 02:05:52;;;;;;;19.43;11.60;;;;;;;;;;4864004;29;20545;-63
2023/12/14 02:08:18;;;;;;;16.27;10.70;;;;;;;;;;4866978;29;20093;-63
2023/12/14 02:10:44;;;;;;;21.80;12.63;;;;;;;;;;4866033;29;20096;-63
2023/12/14 02:13:10;;;;;;;22.70;12.83;;;;;;;;;;4865152;29;20404;-63
2023/12/14 02:15:36;;;;;;;24.27;12.07;;;;;;;;;;4867469;29;20049;-63
2023/12/14 02:18:02;;;;;;;20.77;12.20;;;;;;;;;;4868691;29;20057;-63
2023/12/14 02:20:28;;;;;;;20.13;11.57;;;;;;;;;;4862966;29;20180;-63
2023/12/14 02:22:55;;;;;;;20.17;11.53;;;;;;;;;;4863486;29;20836;-62
2023/12/14 02:25:21;;;;;;;23.03;12.10;;;;;;;;;;4861138;29;20398;-62
2023/12/14 02:27:48;;;;;;;25.73;11.50;;;;;;;;;;4864016;29;20053;-63
2023/12/14 02:30:15;;;;;;;20.57;11.53;;;;;;;;;;4863778;29;20053;-62
2023/12/14 02:32:41;;;;;;;22.37;12.47;;;;;;;;;;4865656;29;20066;-63
2023/12/14 02:35:07;;;;;;;23.70;12.53;;;;;;;;;;4866829;29;20037;-63
2023/12/14 02:37:34;;;;;;;24.83;12.70;;;;;;;;;;4866512;29;20033;-63
2023/12/14 02:40:03;;;;;;;23.97;11.83;;;;;;;;;;4862795;29;20049;-62
2023/12/14 02:42:29;;;;;;;18.90;11.40;;;;;;;;;;4866855;29;20086;-62
2023/12/14 02:44:55;;;;;;;22.07;12.67;;;;;;;;;;4865910;29;20508;-62
2023/12/14 02:47:21;;;;;;;20.07;12.10;;;;;;;;;;4864422;29;20113;-63
2023/12/14 02:49:47;;;;;;;22.30;12.27;;;;;;;;;;4867016;29;20567;-62
2023/12/14 02:52:13;;;;;;;23.20;12.67;;;;;;;;;;4862460;29;20053;-62
2023/12/14 02:54:40;;;;;;;22.20;12.37;;;;;;;;;;4861489;29;20109;-62
2023/12/14 02:57:06;;;;;;;24.67;13.23;;;;;;;;;;4864021;29;20131;-63
2023/12/14 02:59:32;;;;;;;19.87;10.67;;;;;;;;;;4866550;29;20049;-62
2023/12/14 03:01:59;;;;;;;22.70;11.70;;;;;;;;;;4862544;29;20053;-63
2023/12/14 03:04:25;;;;;;;22.20;11.50;;;;;;;;;;4868099;29;20049;-63
2023/12/14 03:06:51;;;;;;;23.97;13.13;;;;;;;;;;4863602;29;20068;-62
2023/12/14 03:09:18;;;;;;;24.23;12.23;;;;;;;;;;4867031;29;20120;-62
2023/12/14 03:11:44;;;;;;;23.63;11.97;;;;;;;;;;4870339;29;20053;-62
2023/12/14 03:14:11;;;;;;;24.30;11.73;;;;;;;;;;4870812;29;20420;-63
2023/12/14 03:16:37;;;;;;;23.27;11.43;;;;;;;;;;4866162;29;20041;-62
2023/12/14 03:19:03;;;;;;;23.57;11.73;;;;;;;;;;4867880;29;20070;-63
2023/12/14 03:21:29;;;;;;;21.43;12.13;;;;;;;;;;4869013;29;20061;-62
2023/12/14 03:23:55;;;;;;;23.83;11.73;;;;;;;;;;4868054;29;20057;-62
2023/12/14 03:26:21;;;;;;;24.30;12.03;;;;;;;;;;4866585;29;20049;-62
2023/12/14 03:28:47;;;;;;;27.03;11.97;;;;;;;;;;4865124;29;20072;-62
2023/12/14 03:31:13;;;;;;;25.57;11.80;;;;;;;;;;4864189;29;20062;-63
2023/12/14 03:33:40;;;;;;;20.53;11.40;;;;;;;;;;4870209;29;20056;-63
2023/12/14 03:36:06;;;;;;;25.93;11.27;;;;;;;;;;4869128;29;20432;-62
2023/12/14 03:38:32;;;;;;;22.83;11.80;;;;;;;;;;4868421;29;20170;-62
2023/12/14 03:40:58;;;;;;;26.10;11.57;;;;;;;;;;4873441;29;20052;-62
2023/12/14 03:43:24;;;;;;;26.37;12.50;;;;;;;;;;4867329;29;20041;-62
2023/12/14 03:45:50;;;;;;;21.60;11.73;;;;;;;;;;4864690;29;20082;-63
2023/12/14 03:48:16;;;;;;;23.43;11.97;;;;;;;;;;4870896;29;20127;-63
2023/12/14 03:50:42;;;;;;;20.23;11.27;;;;;;;;;;4868721;29;20385;-62
2023/12/14 03:53:09;;;;;;;27.27;11.40;;;;;;;;;;4867694;29;20048;-63
2023/12/14 03:55:35;;;;;;;24.20;10.77;;;;;;;;;;4870503;29;20419;-62
2023/12/14 03:58:01;;;;;;;22.27;11.57;;;;;;;;;;4868584;29;20523;-63
2023/12/14 04:00:27;;;;;;;23.30;11.57;;;;;;;;;;4870096;29;20048;-62
2023/12/14 04:02:53;;;;;;;20.17;10.00;;;;;;;;;;4872037;29;20045;-62
2023/12/14 04:05:19;;;;;;;22.53;10.17;;;;;;;;;;4870309;29;20128;-62
2023/12/14 04:07:45;;;;;;;16.23;9.57;;;;;;;;;;4868146;29;20056;-63
2023/12/14 04:10:12;;;;;;;17.30;9.07;;;;;;;;;;4868667;29;20053;-62
2023/12/14 04:12:38;;;;;;;19.77;10.27;;;;;;;;;;4868565;29;20045;-62
2023/12/14 04:15:05;;;;;;;22.90;10.17;;;;;;;;;;4865343;29;20049;-63
2023/12/14 04:17:31;;;;;;;24.10;10.73;;;;;;;;;;4865886;29;20888;-62
2023/12/14 04:19:57;;;;;;;23.57;10.13;;;;;;;;;;4868328;29;20133;-62
2023/12/14 04:22:23;;;;;;;17.87;8.80;;;;;;;;;;4866922;29;20049;-63
2023/12/14 04:24:49;;;;;;;17.13;9.33;;;;;;;;;;4871406;29;20471;-63
2023/12/14 04:27:15;;;;;;;19.57;9.70;;;;;;;;;;4867234;29;20041;-63
2023/12/14 04:29:41;;;;;;;17.57;9.23;;;;;;;;;;4866978;29;20049;-62
2023/12/14 04:32:08;;;;;;;20.63;10.60;;;;;;;;;;4861221;29;20045;-63
2023/12/14 04:34:34;;;;;;;15.67;9.70;;;;;;;;;;4858117;29;20109;-63
2023/12/14 04:37:00;;;;;;;14.50;8.80;;;;;;;;;;4873772;29;20441;-63
2023/12/14 04:39:26;;;;;;;15.27;9.30;;;;;;;;;;4874781;29;20051;-62
2023/12/14 04:41:52;;;;;;;18.87;9.37;;;;;;;;;;4876393;29;20092;-63
2023/12/14 04:44:18;;;;;;;15.23;8.77;;;;;;;;;;4876236;29;20048;-63
2023/12/14 04:46:44;;;;;;;16.70;9.43;;;;;;;;;;4876055;29;20092;-63
2023/12/14 04:49:10;;;;;;;13.17;8.63;;;;;;;;;;4876271;29;20045;-63
2023/12/14 04:51:36;;;;;;;15.30;9.00;;;;;;;;;;4876503;29;20408;-63
2023/12/14 04:54:03;;;;;;;17.70;9.23;;;;;;;;;;4876285;29;20112;-62
2023/12/14 04:56:29;;;;;;;20.07;9.80;;;;;;;;;;4876150;29;20045;-63
2023/12/14 04:58:54;;;;;;;18.17;9.63;;;;;;;;;;4875987;29;20041;-62
2023/12/14 05:01:20;;;;;;;19.10;11.03;;;;;;;;;;4876196;29;20045;-62
2023/12/14 05:03:46;;;;;;;19.27;10.00;;;;;;;;;;4876132;29;20101;-62
2023/12/14 05:06:13;;;;;;;21.73;10.67;;;;;;;;;;4875530;29;20571;-63
2023/12/14 05:08:39;;;;;;;19.03;10.23;;;;;;;;;;4876127;29;20421;-62
2023/12/14 05:11:05;;;;;;;22.40;10.90;;;;;;;;;;4875747;29;20500;-62
2023/12/14 05:13:31;;;;;;;22.27;11.30;;;;;;;;;;4876006;29;20056;-62
2023/12/14 05:16:00;;;;;;;18.53;10.50;;;;;;;;;;4876324;29;20513;-62
2023/12/14 05:18:27;;;;;;;24.37;10.97;;;;;;;;;;4874890;29;20053;-63
2023/12/14 05:20:53;;;;;;;20.20;10.90;;;;;;;;;;4873728;29;20045;-62
2023/12/14 05:23:19;;;;;;;23.13;12.00;;;;;;;;;;4873912;29;20531;-62
2023/12/14 05:25:45;;;;;;;20.03;11.23;;;;;;;;;;4875417;29;20524;-62
2023/12/14 05:28:11;;;;;;;24.43;12.07;;;;;;;;;;4874247;29;20045;-62
2023/12/14 05:30:37;;;;;;;21.07;11.07;;;;;;;;;;4874515;29;20104;-63
2023/12/14 05:33:04;;;;;;;23.43;10.60;;;;;;;;;;4875042;29;20053;-62
2023/12/14 05:35:30;;;;;;;21.90;10.53;;;;;;;;;;4874697;29;20563;-63
2023/12/14 05:37:56;;;;;;;21.90;10.43;;;;;;;;;;4874050;29;20053;-62
2023/12/14 05:40:22;;;;;;;20.27;11.07;;;;;;;;;;4875740;29;20136;-62
2023/12/14 05:42:48;;;;;;;23.67;10.70;;;;;;;;;;4875956;29;20049;-63
2023/12/14 05:45:14;;;;;;;17.40;10.40;;;;;;;;;;4875585;29;20053;-63
2023/12/14 05:47:41;;;;;;;20.20;10.23;;;;;;;;;;4875485;29;20041;-62
2023/12/14 05:50:09;;;;;;;22.20;10.63;;;;;;;;;;4875071;29;20518;-63
2023/12/14 05:52:35;;;;;;;16.00;10.00;;;;;;;;;;4875575;29;20048;-63
2023/12/14 05:55:01;;;;;;;21.13;11.20;;;;;;;;;;4875098;29;20077;-63
2023/12/14 05:57:28;;;;;;;21.17;11.10;;;;;;;;;;4874830;29;20049;-63
2023/12/14 05:59:54;;;;;;;21.23;10.30;;;;;;;;;;4875338;29;20452;-62
2023/12/14 06:02:19;;;;;;;19.93;11.00;;;;;;;;;;4875071;29;20052;-63
2023/12/14 06:04:45;;;;;;;18.73;11.63;;;;;;;;;;4875255;29;20057;-63
2023/12/14 06:07:12;;;;;;;23.37;11.00;;;;;;;;;;4875403;29;20508;-63
2023/12/14 06:09:39;;;;;;;19.80;11.03;;;;;;;;;;4874960;29;20112;-63
2023/12/14 06:12:05;;;;;;;24.23;12.00;;;;;;;;;;4874609;29;20053;-63
2023/12/14 06:14:31;;;;;;;23.50;10.90;;;;;;;;;;4875447;29;20044;-62
2023/12/14 06:16:58;;;;;;;21.53;10.87;;;;;;;;;;4875124;29;20049;-62
2023/12/14 06:19:24;;;;;;;20.37;11.53;;;;;;;;;;4874918;29;20057;-63
2023/12/14 06:21:50;;;;;;;15.30;9.03;;;;;;;;;;4874930;29;20533;-62
2023/12/14 06:24:16;;;;;;;21.90;9.73;;;;;;;;;;4874867;29;20144;-63
2023/12/14 06:26:43;;;;;;;16.67;10.50;;;;;;;;;;4874430;29;20417;-63
2023/12/14 06:29:10;;;;;;;16.67;10.33;;;;;;;;;;4874007;29;20136;-63
2023/12/14 06:31:36;;;;;;;21.80;11.27;;;;;;;;;;4874800;29;20053;-63
2023/12/14 06:34:03;;;;;;;19.93;11.20;;;;;;;;;;4874730;29;20053;-62
2023/12/14 06:36:30;;;;;;;20.97;10.77;;;;;;;;;;4874807;29;20059;-62
2023/12/14 06:38:57;;;;;;;19.30;10.27;;;;;;;;;;4874305;29;20109;-62
2023/12/14 06:41:23;;;;;;;20.43;10.27;;;;;;;;;;4874435;29;20059;-62
2023/12/14 06:43:49;;;;;;;19.13;11.10;;;;;;;;;;4874874;29;20124;-62
2023/12/14 06:46:15;;;;;;;20.37;11.20;;;;;;;;;;4876136;29;20563;-63
2023/12/14 06:48:41;;;;;;;20.93;10.83;;;;;;;;;;4878247;29;20546;-62
2023/12/14 06:51:08;;;;;;;22.40;10.93;;;;;;;;;;4878034;29;20414;-63
2023/12/14 06:53:34;;;;;;;22.40;11.50;;;;;;;;;;4878420;29;20381;-62
2023/12/14 06:56:00;;;;;;;18.73;11.80;;;;;;;;;;4878170;29;20579;-62
2023/12/14 06:58:27;;;;;;;18.67;10.10;;;;;;;;;;4878337;29;20461;-63
2023/12/14 07:00:53;;;;;;;17.90;10.03;;;;;;;;;;4877954;29;20084;-62
2023/12/14 07:03:19;;;;;;;19.33;10.83;;;;;;;;;;4878093;29;20080;-62
2023/12/14 07:05:45;;;;;;;21.50;10.80;;;;;;;;;;4878423;29;20571;-62
2023/12/14 07:08:11;;;;;;;20.77;12.07;;;;;;;;;;4878277;29;20048;-62
2023/12/14 07:10:37;;;;;;;21.43;11.20;;;;;;;;;;4877941;29;20411;-62
2023/12/14 07:13:03;;;;;;;23.97;10.73;;;;;;;;;;4877640;29;20045;-63
2023/12/14 07:15:29;;;;;;;21.83;11.13;;;;;;;;;;4878106;29;20049;-63
2023/12/14 07:17:55;;;;;;;19.43;11.07;;;;;;;;;;4877788;29;20568;-62
2023/12/14 07:20:21;;;;;;;18.40;10.70;;;;;;;;;;4877877;29;20049;-63
2023/12/14 07:22:47;;;;;;;22.17;11.33;;;;;;;;;;4877504;29;20527;-62
2023/12/14 07:25:13;;;;;;;25.90;12.90;;;;;;;;;;4877956;29;20509;-63
2023/12/14 07:27:39;;;;;;;19.27;10.27;;;;;;;;;;4877919;29;20060;-62
2023/12/14 07:30:05;;;;;;;25.57;12.27;;;;;;;;;;4877745;29;20037;-62
2023/12/14 07:32:31;;;;;;;26.03;11.13;;;;;;;;;;4876898;29;20076;-62
2023/12/14 07:34:57;;;;;;;19.93;11.80;;;;;;;;;;4877581;29;20476;-63
2023/12/14 07:37:23;;;;;;;21.03;11.37;;;;;;;;;;4876587;29;20049;-62
2023/12/14 07:39:49;;;;;;;24.00;10.53;;;;;;;;;;4875766;29;20508;-62
2023/12/14 07:42:19;;;;;;;14.83;9.23;;;;;;;;;;4876574;29;20045;-62
2023/12/14 07:44:45;;;;;;;19.93;11.27;;;;;;;;;;4874876;29;20224;-63
2023/12/14 07:47:11;;;;;;;18.53;9.73;;;;;;;;;;4872138;29;20049;-63
2023/12/14 07:49:37;;;;;;;15.87;10.57;;;;;;;;;;4875176;29;20049;-62
2023/12/14 07:52:03;;;;;;;21.30;10.70;;;;;;;;;;4877586;29;20512;-63
2023/12/14 07:54:29;;;;;;;18.10;10.40;;;;;;;;;;4875820;29;20081;-62
2023/12/14 07:56:55;;;;;;;23.07;11.37;;;;;;;;;;4876510;29;20045;-63
2023/12/14 07:59:21;;;;;;;18.33;11.47;;;;;;;;;;4876311;29;20045;-62
2023/12/14 08:01:47;;;;;;;18.80;11.13;;;;;;;;;;4877094;29;20046;-62
2023/12/14 08:04:13;;;;;;;22.10;10.73;;;;;;;;;;4895949;29;20108;-63
2023/12/14 08:06:39;;;;;;;18.93;11.57;;;;;;;;;;4878155;29;20107;-62
2023/12/14 08:09:09;;;;;;;22.50;11.13;;;;;;;;;;4872727;29;20504;-62
2023/12/14 08:11:35;;;;;;;19.70;11.27;;;;;;;;;;4876579;29;20045;-63
2023/12/14 08:14:01;;;;;;;19.63;11.63;;;;;;;;;;4876316;29;20045;-63
2023/12/14 08:16:27;;;;;;;20.57;12.33;;;;;;;;;;4895872;29;20127;-62
2023/12/14 08:18:53;;;;;;;22.80;12.67;;;;;;;;;;4866220;29;20084;-63
2023/12/14 08:21:20;;;;;;;19.27;11.33;;;;;;;;;;4860604;29;20048;-62
2023/12/14 08:23:46;;;;;;;23.17;13.17;;;;;;;;;;4875221;29;20049;-63
2023/12/14 08:26:12;;;;;;;22.03;12.50;;;;;;;;;;4875621;29;20055;-62
2023/12/14 08:28:42;;;;;;;18.57;12.07;;;;;;;;;;4876276;29;20053;-63
2023/12/14 08:31:09;;;;;;;21.50;12.83;;;;;;;;;;4877521;29;20065;-63
2023/12/14 08:33:36;;;;;;;23.53;12.17;;;;;;;;;;4875039;29;20502;-63
2023/12/14 08:36:02;;;;;;;23.20;12.27;;;;;;;;;;4879910;29;20470;-63
2023/12/14 08:38:28;;;;;;;21.37;12.03;;;;;;;;;;4884587;29;20071;-62
2023/12/14 08:40:54;;;;;;;17.53;11.50;;;;;;;;;;4873916;29;20811;-62
2023/12/14 08:43:20;;;;;;;23.73;12.17;;;;;;;;;;4873741;29;20041;-62
2023/12/14 08:45:48;;;;;;;18.93;11.83;;;;;;;;;;4872131;29;20049;-62
2023/12/14 08:48:14;;;;;;;27.40;13.43;;;;;;;;;;4872643;29;20606;-62
2023/12/14 08:50:40;;;;;;;26.53;14.10;;;;;;;;;;4871994;29;20057;-62
2023/12/14 08:53:08;;;;;;;21.47;12.70;;;;;;;;;;4873313;29;20053;-62
2023/12/14 08:55:34;;;;;;;22.63;12.40;;;;;;;;;;4874464;29;20491;-62
2023/12/14 08:58:00;;;;;;;25.00;13.23;;;;;;;;;;4874037;29;20049;-63
2023/12/14 09:00:26;;;;;;;22.50;12.33;;;;;;;;;;4875090;29;20525;-63
2023/12/14 09:02:52;;;;;;;18.30;11.97;;;;;;;;;;4876068;29;20136;-63
2023/12/14 09:05:20;;;;;;;20.97;12.40;;;;;;;;;;4875821;29;20193;-62
2023/12/14 09:07:46;;;;;;;21.70;11.73;;;;;;;;;;4874490;29;20057;-62
2023/12/14 09:10:12;;;;;;;24.07;12.93;;;;;;;;;;4875197;29;20045;-62
2023/12/14 09:12:38;;;;;;;20.37;12.83;;;;;;;;;;4875146;29;20052;-62
2023/12/14 09:15:05;;;;;;;19.93;12.47;;;;;;;;;;4875757;29;20048;-62
2023/12/14 09:17:34;;;;;;;21.33;12.27;;;;;;;;;;4874819;29;20113;-62
2023/12/14 09:20:01;;;;;;;19.13;12.43;;;;;;;;;;4875534;29;20056;-62
2023/12/14 09:22:27;;;;;;;19.10;12.43;;;;;;;;;;4875285;29;20049;-62
2023/12/14 09:24:53;;;;;;;18.67;11.23;;;;;;;;;;4875383;29;20045;-62
2023/12/14 09:27:19;;;;;;;21.50;12.60;;;;;;;;;;4875296;29;20061;-62
2023/12/14 09:29:45;;;;;;;21.70;13.47;;;;;;;;;;4875212;29;20041;-63
2023/12/14 09:32:11;;;;;;;20.53;12.73;;;;;;;;;;4873718;29;20660;-62
2023/12/14 09:34:37;;;;;;;21.57;11.53;;;;;;;;;;4874333;29;20091;-62
2023/12/14 09:37:03;;;;;;;20.53;12.10;;;;;;;;;;4873864;29;20080;-62
2023/12/14 09:39:29;;;;;;;19.57;12.13;;;;;;;;;;4874880;29;20642;-62
2023/12/14 09:42:05;;;;;;;18.37;11.57;;;;;;;;;;4875366;29;20053;-62
2023/12/14 09:44:32;;;;;;;20.80;11.97;;;;;;;;;;4874879;29;20053;-62
2023/12/14 09:46:59;;;;;;;24.63;12.13;;;;;;;;;;4874947;29;20124;-63
2023/12/14 09:49:30;;;;;;;20.57;11.30;;;;;;;;;;4874257;29;20461;-62
2023/12/14 09:51:59;;;;;;;20.17;11.33;;;;;;;;;;4873555;29;20052;-62
2023/12/14 09:54:26;;;;;;;19.97;11.90;;;;;;;;;;4874489;29;20058;-62
2023/12/14 09:56:53;;;;;;;18.60;11.07;;;;;;;;;;4875031;29;20052;-62
2023/12/14 09:59:19;;;;;;;17.87;10.50;;;;;;;;;;4873648;29;20056;-62
2023/12/14 10:01:46;;;;;;;18.10;10.97;;;;;;;;;;4874849;29;20048;-62
2023/12/14 10:04:13;;;;;;;19.20;10.97;;;;;;;;;;4875095;29;20053;-62
2023/12/14 10:06:39;;;;;;;16.70;11.07;;;;;;;;;;4873152;29;20520;-63
2023/12/14 10:09:18;;;;;;;18.07;10.77;;;;;;;;;;4874774;29;20595;-62
2023/12/14 10:11:44;;;;;;;18.03;11.23;;;;;;;;;;4874155;29;20063;-63
2023/12/14 10:14:24;;;;;;;17.20;11.47;;;;;;;;;;4873866;29;20052;-63
2023/12/14 10:16:50;;;;;;;21.23;11.63;;;;;;;;;;4874899;29;20053;-63
2023/12/14 10:19:20;;;;;;;19.33;11.63;;;;;;;;;;4874750;29;20639;-63
2023/12/14 10:21:49;;;;;;;16.43;10.77;;;;;;;;;;4874643;29;20057;-62
2023/12/14 10:24:15;;;;;;;20.93;12.03;;;;;;;;;;4873916;29;20056;-62
2023/12/14 10:26:41;;;;;;;18.90;11.33;;;;;;;;;;4874547;29;20500;-62
2023/12/14 10:29:09;;;;;;;16.47;11.00;;;;;;;;;;4874527;29;20080;-63
2023/12/14 10:31:37;;;;;;;19.00;10.87;;;;;;;;;;4874641;29;20431;-62
2023/12/14 10:34:03;;;;;;;15.17;8.90;;;;;;;;;;4872610;29;20587;-63
2023/12/14 10:36:30;;;;;;;16.80;10.63;;;;;;;;;;4872745;29;20519;-62
2023/12/14 10:38:57;;;;;;;16.70;10.37;;;;;;;;;;4873822;29;20041;-63
2023/12/14 10:41:23;;;;;;;15.10;10.33;;;;;;;;;;4874108;29;20472;-63
2023/12/14 10:43:50;;;;;;;16.57;9.73;;;;;;;;;;4871928;29;20071;-62
2023/12/14 10:46:17;;;;;;;21.53;11.00;;;;;;;;;;4874228;29;20052;-63
2023/12/14 10:48:45;;;;;;;18.80;10.10;;;;;;;;;;4874196;29;20045;-62
2023/12/14 10:51:12;;;;;;;17.53;10.57;;;;;;;;;;4873184;29;20579;-63
2023/12/14 10:53:38;;;;;;;19.53;10.07;;;;;;;;;;4873855;29;20053;-63
2023/12/14 10:56:09;;;;;;;17.23;10.23;;;;;;;;;;4874353;29;20432;-63
2023/12/14 10:58:55;;;;;;;14.67;10.47;;;;;;;;;;4874196;29;20279;-63
2023/12/14 11:01:26;;;;;;;14.83;9.23;;;;;;;;;;4873660;29;20052;-63
2023/12/14 11:03:56;;;;;;;10.47;5.97;;;;;;;;;;4874088;29;20088;-63
2023/12/14 11:06:26;;;;;;;11.70;6.73;;;;;;;;;;4873861;29;20459;-63
2023/12/14 11:08:54;;;;;;;11.20;7.17;;;;;;;;;;4882983;29;20617;-63
2023/12/14 11:11:21;;;;;;;14.23;8.03;;;;;;;;;;4876110;29;20486;-62
2023/12/14 11:13:54;;;;;;;16.27;8.53;;;;;;;;;;4874401;29;20177;-63
2023/12/14 11:16:21;;;;;;;12.60;7.65;;;;;;;;;;4893181;29;20048;-63
2023/12/14 11:18:47;;;;;;;14.50;9.10;;;;;;;;;;4872729;29;20099;-62
2023/12/14 11:21:21;;;;;;;13.97;8.77;;;;;;;;;;4871650;29;20084;-63
2023/12/14 11:23:47;;;;;;;;;;;;;;;;;;4865997;29;20057;-62
2023/12/14 11:26:21;;;;;;;13.70;8.07;;;;;;;;;;4858915;29;19955;-63
2023/12/14 11:28:48;;;;;;;10.73;7.43;;;;;;;;;;4861473;29;20059;-62
2023/12/14 11:31:15;;;;;;;13.87;8.93;;;;;;;;;;4872991;29;20053;-63
2023/12/14 11:33:41;;;;;;;15.43;9.20;;;;;;;;;;4875827;29;20049;-63
2023/12/14 11:36:08;;;;;;;12.87;8.87;;;;;;;;;;4881394;29;20096;-63
2023/12/14 11:38:35;;;;;;;13.60;8.87;;;;;;;;;;4895642;29;20554;-63
2023/12/14 11:41:01;;;;;;;11.67;7.97;;;;;;;;;;4876676;29;20060;-63
2023/12/14 11:43:28;;;;;;;15.87;8.20;;;;;;;;;;4876601;29;20075;-63
2023/12/14 11:45:55;;;;;;;13.17;8.90;;;;;;;;;;4877217;29;20056;-63
2023/12/14 11:48:21;;;;;;;12.43;8.00;;;;;;;;;;4876348;29;20508;-62
2023/12/14 11:50:47;;;;;;;11.57;8.87;;;;;;;;;;4888277;29;20044;-63
2023/12/14 11:53:14;;;;;;;15.43;10.30;;;;;;;;;;4892618;29;20045;-62
2023/12/14 11:55:41;;;;;;;15.00;8.17;;;;;;;;;;4886224;29;20420;-63
2023/12/14 11:58:07;;;;;;;14.33;8.63;;;;;;;;;;4876214;29;20109;-63
2023/12/14 12:00:36;;;;;;;10.80;7.27;;;;;;;;;;4876493;29;20055;-63
2023/12/14 12:03:16;;;;;;;13.57;8.27;;;;;;;;;;4891012;29;20468;-62
2023/12/14 12:05:43;;;;;;;12.90;8.07;;;;;;;;;;4887663;29;20143;-62
2023/12/14 12:08:10;;;;;;;14.33;9.40;;;;;;;;;;4875111;29;20121;-62
2023/12/14 12:10:37;;;;;;;14.27;9.13;;;;;;;;;;4875452;29;20191;-62
2023/12/14 12:13:06;;;;;;;13.87;8.53;;;;;;;;;;4875888;29;20155;-63
2023/12/14 12:15:36;;;;;;;12.60;8.80;;;;;;;;;;4859832;29;20052;-62
2023/12/14 12:18:12;;;;;;;14.50;8.10;;;;;;;;;;4864877;29;20427;-63
2023/12/14 12:20:39;;;;;;;16.20;9.40;;;;;;;;;;4876623;29;20102;-62
2023/12/14 12:23:05;;;;;;;14.30;7.60;;;;;;;;;;4876897;29;20060;-63
2023/12/14 12:25:31;;;;;;;13.00;8.07;;;;;;;;;;4875133;29;20056;-63
2023/12/14 12:28:02;;;;;;;13.63;7.73;;;;;;;;;;4875389;29;20428;-63
2023/12/14 12:30:28;;;;;;;13.53;7.90;;;;;;;;;;4874533;29;20053;-63
2023/12/14 12:32:55;;;;;;;12.80;7.27;;;;;;;;;;4873341;29;20584;-63
2023/12/14 12:35:22;;;;;;;10.97;7.43;;;;;;;;;;4875846;29;20052;-63
2023/12/14 12:37:53;;;;;;;12.83;7.80;;;;;;;;;;4876509;29;20049;-63
2023/12/14 12:40:19;;;;;;;15.70;9.33;;;;;;;;;;4874810;29;20045;-63
2023/12/14 12:42:48;;;;;;;12.03;8.53;;;;;;;;;;4875637;29;20053;-62
2023/12/14 12:45:14;;;;;;;13.57;8.67;;;;;;;;;;4875457;29;20164;-63
2023/12/14 12:47:40;;;;;;;12.47;7.57;;;;;;;;;;4876007;29;20432;-63
2023/12/14 12:50:06;;;;;;;15.07;8.97;;;;;;;;;;4875779;29;20052;-62
2023/12/14 12:52:32;;;;;;;12.17;8.37;;;;;;;;;;4875350;29;20055;-63
2023/12/14 12:54:58;;;;;;;14.97;8.67;;;;;;;;;;4875785;29;20124;-62
2023/12/14 12:57:24;;;;;;;16.07;9.10;;;;;;;;;;4875474;29;20508;-62
2023/12/14 12:59:50;;;;;;;14.40;8.97;;;;;;;;;;4875911;29;20056;-63
2023/12/14 13:02:16;;;;;;;14.17;8.47;;;;;;;;;;4889853;29;20048;-63
2023/12/14 13:04:42;;;;;;;15.23;8.73;;;;;;;;;;4875284;29;20048;-62
2023/12/14 13:07:09;;;;;;;32.37;9.17;;;;;;;;;;4875401;29;20060;-63
2023/12/14 13:09:34;;;;;;;15.27;8.33;;;;;;;;;;4874972;29;20438;-62
2023/12/14 13:12:01;;;;;;;15.13;8.93;;;;;;;;;;4874230;29;20159;-62
2023/12/14 13:14:27;;;;;;;14.30;9.00;;;;;;;;;;4875863;29;20507;-63
2023/12/14 13:16:53;;;;;;;15.37;8.87;;;;;;;;;;4875539;29;20101;-63
2023/12/14 13:19:19;;;;;;;14.87;8.77;;;;;;;;;;4873810;29;20056;-62
2023/12/14 13:21:45;;;;;;;17.10;8.57;;;;;;;;;;4875478;29;20096;-63
2023/12/14 13:24:11;;;;;;;14.77;10.20;;;;;;;;;;4875067;29;20457;-63
2023/12/14 13:26:36;;;;;;;15.33;9.30;;;;;;;;;;4875698;29;20084;-63
2023/12/14 13:29:03;;;;;;;13.93;8.73;;;;;;;;;;4874702;29;20121;-63
2023/12/14 13:31:29;;;;;;;17.60;9.50;;;;;;;;;;4875404;29;20057;-62
2023/12/14 13:33:54;;;;;;;13.13;8.47;;;;;;;;;;4875154;29;20072;-63
2023/12/14 13:36:20;;;;;;;15.40;9.70;;;;;;;;;;4873458;29;20053;-62
2023/12/14 13:38:47;;;;;;;17.57;10.37;;;;;;;;;;4875341;29;20415;-63
2023/12/14 13:41:13;;;;;;;13.07;9.10;;;;;;;;;;4874491;29;20603;-62
2023/12/14 13:43:39;;;;;;;15.57;9.70;;;;;;;;;;4875287;29;20053;-63
2023/12/14 13:46:05;;;;;;;14.37;9.80;;;;;;;;;;4874814;29;20558;-62
2023/12/14 13:48:31;;;;;;;15.57;10.10;;;;;;;;;;4874767;29;20124;-63
2023/12/14 13:50:57;;;;;;;17.00;9.80;;;;;;;;;;4874371;29;20045;-63
2023/12/14 13:53:23;;;;;;;18.07;10.33;;;;;;;;;;4875008;29;20143;-63
2023/12/14 13:55:50;;;;;;;19.73;10.90;;;;;;;;;;4874923;29;20420;-63
2023/12/14 13:58:16;;;;;;;17.73;10.10;;;;;;;;;;4873700;29;20076;-63
2023/12/14 14:00:43;;;;;;;16.27;10.27;;;;;;;;;;4875202;29;20113;-63
2023/12/14 14:03:09;;;;;;;15.43;10.00;;;;;;;;;;4874781;29;20127;-62
2023/12/14 14:05:35;;;;;;;15.10;9.87;;;;;;;;;;4874972;29;20477;-62
2023/12/14 14:08:02;;;;;;;16.13;10.40;;;;;;;;;;4874635;29;20139;-63
2023/12/14 14:10:28;;;;;;;16.37;9.57;;;;;;;;;;4874071;29;20072;-63
2023/12/14 14:12:54;;;;;;;17.07;10.13;;;;;;;;;;4873772;29;20497;-63
2023/12/14 14:15:21;;;;;;;16.20;10.50;;;;;;;;;;4874745;29;20518;-62
2023/12/14 14:17:51;;;;;;;16.70;10.73;;;;;;;;;;4875001;29;20132;-62